Time;durP1;ratioP1;P1;durP2;ratioP2;P2;SDS_P1;SDS_P2;PMS_P1;PMS_P2;Temp;Humidity;BMP_temperature;BMP_pressure;BME280_temperature;BME280_humidity;BME280_pressure;Samples;Min_cycle;Max_cycle;Signal;HPM_P1;HPM_P2
2023/07/19 00:00:34;;;;;;;19.60;13.57;;;;;;;;;;5081306;28;20513;-61
2023/07/19 00:02:59;;;;;;;19.27;13.37;;;;;;;;;;5084157;28;20272;-62
2023/07/19 00:05:25;;;;;;;17.10;14.05;;;;;;;;;;5075579;28;20024;-64
2023/07/19 00:07:52;;;;;;;16.53;12.87;;;;;;;;;;5085619;28;20012;-61
2023/07/19 00:10:17;;;;;;;18.30;13.20;;;;;;;;;;5080935;28;20253;-63
2023/07/19 00:12:43;;;;;;;15.15;12.70;;;;;;;;;;5090174;28;20035;-63
2023/07/19 00:15:08;;;;;;;19.17;13.80;;;;;;;;;;5081733;28;20120;-61
2023/07/19 00:17:33;;;;;;;21.57;13.73;;;;;;;;;;5085604;28;20148;-64
2023/07/19 00:19:58;;;;;;;16.33;13.33;;;;;;;;;;5087494;28;20023;-61
2023/07/19 00:22:24;;;;;;;25.63;14.33;;;;;;;;;;5073368;28;20095;-62
2023/07/19 00:24:49;;;;;;;18.03;13.80;;;;;;;;;;5085958;28;20115;-62
2023/07/19 00:27:14;;;;;;;18.90;12.77;;;;;;;;;;5083869;28;20312;-65
2023/07/19 00:29:39;;;;;;;18.47;13.93;;;;;;;;;;5082764;28;20028;-64
2023/07/19 00:32:05;;;;;;;14.30;12.70;;;;;;;;;;5087361;28;20628;-61
2023/07/19 00:34:32;;;;;;;20.17;13.98;;;;;;;;;;5087516;28;20022;-61
2023/07/19 00:36:59;;;;;;;19.50;14.10;;;;;;;;;;5084437;28;20062;-62
2023/07/19 00:39:24;;;;;;;19.67;13.57;;;;;;;;;;5082505;28;20032;-63
2023/07/19 00:41:52;;;;;;;19.20;13.40;;;;;;;;;;5083222;28;20019;-63
2023/07/19 00:44:17;;;;;;;19.00;13.98;;;;;;;;;;5084296;28;20123;-61
2023/07/19 00:46:45;;;;;;;16.87;13.00;;;;;;;;;;5078167;28;20016;-63
2023/07/19 00:49:15;;;;;;;18.25;13.60;;;;;;;;;;5081316;28;20248;-61
2023/07/19 00:51:43;;;;;;;19.65;13.75;;;;;;;;;;5085312;28;20927;-61
2023/07/19 00:54:08;;;;;;;16.50;12.90;;;;;;;;;;5085704;28;20020;-63
2023/07/19 00:56:34;;;;;;;16.00;13.57;;;;;;;;;;5083307;28;20627;-63
2023/07/19 00:59:01;;;;;;;17.60;13.35;;;;;;;;;;5077192;28;20712;-60
2023/07/19 01:01:26;;;;;;;16.38;13.48;;;;;;;;;;5080868;28;20051;-61
2023/07/19 01:03:51;;;;;;;17.10;13.40;;;;;;;;;;5084166;28;20148;-59
2023/07/19 01:06:18;;;;;;;17.15;12.98;;;;;;;;;;5092373;28;20478;-60
2023/07/19 01:08:43;;;;;;;20.13;13.70;;;;;;;;;;5085644;28;20024;-62
2023/07/19 01:11:08;;;;;;;17.30;13.80;;;;;;;;;;5091791;28;20026;-62
2023/07/19 01:13:39;;;;;;;17.90;12.80;;;;;;;;;;5093123;28;20831;-62
2023/07/19 01:16:04;;;;;;;20.00;14.05;;;;;;;;;;5082659;28;20345;-63
2023/07/19 01:18:29;;;;;;;18.03;14.07;;;;;;;;;;5093642;28;20063;-62
2023/07/19 01:20:54;;;;;;;18.70;13.32;;;;;;;;;;5086954;28;20051;-61
2023/07/19 01:23:20;;;;;;;20.60;14.10;;;;;;;;;;5091132;28;20020;-60
2023/07/19 01:25:47;;;;;;;20.37;13.43;;;;;;;;;;5086154;28;20238;-63
2023/07/19 01:28:15;;;;;;;18.35;13.77;;;;;;;;;;5091522;28;20342;-63
2023/07/19 01:30:40;;;;;;;19.48;13.55;;;;;;;;;;5080736;28;20020;-62
2023/07/19 01:33:07;;;;;;;19.83;14.60;;;;;;;;;;5079556;28;20024;-63
2023/07/19 01:35:33;;;;;;;19.10;13.63;;;;;;;;;;5087953;28;20126;-61
2023/07/19 01:37:58;;;;;;;17.23;13.77;;;;;;;;;;5084422;28;20824;-63
2023/07/19 01:40:23;;;;;;;19.17;13.53;;;;;;;;;;5082659;28;20020;-61
2023/07/19 01:42:48;;;;;;;19.30;13.80;;;;;;;;;;5081521;28;20757;-62
2023/07/19 01:45:14;;;;;;;16.02;14.05;;;;;;;;;;5088495;28;20027;-62
2023/07/19 01:47:39;;;;;;;19.23;14.25;;;;;;;;;;5083892;28;20424;-63
2023/07/19 01:50:05;;;;;;;19.07;13.90;;;;;;;;;;5086054;28;20451;-60
2023/07/19 01:52:30;;;;;;;17.83;13.63;;;;;;;;;;5087544;28;20323;-61
2023/07/19 01:54:57;;;;;;;17.13;14.27;;;;;;;;;;5089677;28;20015;-60
2023/07/19 01:57:23;;;;;;;18.13;13.70;;;;;;;;;;5085993;28;20257;-62
2023/07/19 01:59:48;;;;;;;17.98;13.85;;;;;;;;;;5092726;28;20069;-61
2023/07/19 02:02:13;;;;;;;19.13;13.57;;;;;;;;;;5089825;28;20528;-60
2023/07/19 02:04:40;;;;;;;22.23;13.20;;;;;;;;;;5088611;28;20238;-63
2023/07/19 02:07:06;;;;;;;18.95;13.75;;;;;;;;;;5085143;28;20031;-63
2023/07/19 02:09:31;;;;;;;17.03;13.60;;;;;;;;;;5094731;28;20043;-63
2023/07/19 02:11:59;;;;;;;17.47;14.47;;;;;;;;;;5084633;28;20142;-61
2023/07/19 02:14:24;;;;;;;16.38;13.55;;;;;;;;;;5086296;28;20020;-61
2023/07/19 02:16:49;;;;;;;17.37;13.80;;;;;;;;;;5088684;28;20024;-61
2023/07/19 02:19:17;;;;;;;22.53;14.30;;;;;;;;;;5084570;28;20270;-60
2023/07/19 02:21:42;;;;;;;18.42;14.35;;;;;;;;;;5095317;28;20249;-61
2023/07/19 02:24:10;;;;;;;19.10;13.33;;;;;;;;;;5083318;28;20241;-60
2023/07/19 02:26:36;;;;;;;17.80;13.45;;;;;;;;;;5079803;28;20304;-62
2023/07/19 02:29:02;;;;;;;19.83;13.30;;;;;;;;;;5085872;28;20027;-63
2023/07/19 02:31:30;;;;;;;18.05;13.02;;;;;;;;;;5092447;28;20012;-63
2023/07/19 02:33:57;;;;;;;15.85;12.82;;;;;;;;;;5087502;28;20264;-61
2023/07/19 02:36:24;;;;;;;16.80;13.07;;;;;;;;;;5087447;28;20119;-61
2023/07/19 02:38:52;;;;;;;17.02;12.98;;;;;;;;;;5086766;28;20031;-60
2023/07/19 02:41:17;;;;;;;19.92;13.63;;;;;;;;;;5088350;28;20023;-62
2023/07/19 02:43:45;;;;;;;17.40;12.77;;;;;;;;;;5080450;28;20572;-62
2023/07/19 02:46:11;;;;;;;16.02;13.13;;;;;;;;;;5101415;27;20027;-62
2023/07/19 02:48:38;;;;;;;16.13;13.00;;;;;;;;;;5085503;28;20050;-60
2023/07/19 02:51:08;;;;;;;17.08;12.73;;;;;;;;;;5084130;28;20091;-62
2023/07/19 02:53:33;;;;;;;16.00;12.98;;;;;;;;;;5092369;27;20051;-64
2023/07/19 02:55:59;;;;;;;18.37;12.63;;;;;;;;;;5082555;28;20461;-63
2023/07/19 02:58:25;;;;;;;19.50;13.60;;;;;;;;;;5089648;28;20051;-62
2023/07/19 03:00:53;;;;;;;16.80;12.27;;;;;;;;;;5082073;28;20106;-62
2023/07/19 03:03:18;;;;;;;17.35;12.23;;;;;;;;;;5084616;28;20054;-64
2023/07/19 03:05:44;;;;;;;18.40;12.73;;;;;;;;;;5083762;28;20118;-62
2023/07/19 03:08:12;;;;;;;17.05;12.50;;;;;;;;;;5082614;28;20024;-61
2023/07/19 03:10:40;;;;;;;18.00;13.13;;;;;;;;;;5086020;28;20024;-60
2023/07/19 03:13:08;;;;;;;18.80;12.90;;;;;;;;;;5079334;28;20051;-62
2023/07/19 03:15:36;;;;;;;19.00;12.93;;;;;;;;;;5075935;28;20132;-60
2023/07/19 03:18:02;;;;;;;16.30;13.15;;;;;;;;;;5086608;28;20043;-61
2023/07/19 03:20:28;;;;;;;18.38;11.38;;;;;;;;;;5084668;28;20020;-60
2023/07/19 03:22:59;;;;;;;14.85;12.32;;;;;;;;;;5083637;28;20091;-61
2023/07/19 03:25:27;;;;;;;18.05;12.52;;;;;;;;;;5087615;28;20023;-61
2023/07/19 03:27:52;;;;;;;16.42;12.70;;;;;;;;;;5081830;28;20016;-64
2023/07/19 03:30:17;;;;;;;17.70;12.97;;;;;;;;;;5080884;28;20570;-62
2023/07/19 03:32:42;;;;;;;16.20;13.30;;;;;;;;;;5087288;27;20073;-62
2023/07/19 03:35:08;;;;;;;17.60;12.77;;;;;;;;;;5083572;28;20069;-61
2023/07/19 03:37:34;;;;;;;16.48;12.38;;;;;;;;;;5085109;28;20874;-61
2023/07/19 03:39:59;;;;;;;17.98;12.75;;;;;;;;;;5087170;28;20113;-63
2023/07/19 03:42:27;;;;;;;18.60;12.77;;;;;;;;;;5104442;27;20398;-60
2023/07/19 03:44:52;;;;;;;16.88;12.82;;;;;;;;;;5083276;28;20369;-61
2023/07/19 03:47:20;;;;;;;15.40;12.23;;;;;;;;;;5090882;28;21123;-61
2023/07/19 03:49:45;;;;;;;16.98;11.95;;;;;;;;;;5087510;28;20123;-61
2023/07/19 03:52:11;;;;;;;19.13;12.37;;;;;;;;;;5088613;28;20016;-60
2023/07/19 03:54:36;;;;;;;17.40;13.18;;;;;;;;;;5083251;28;20315;-60
2023/07/19 03:57:01;;;;;;;16.97;13.03;;;;;;;;;;5096952;28;20434;-63
2023/07/19 03:59:29;;;;;;;17.83;13.03;;;;;;;;;;5079722;28;20731;-62
2023/07/19 04:01:57;;;;;;;17.23;13.43;;;;;;;;;;5088477;28;20795;-63
2023/07/19 04:04:22;;;;;;;16.83;12.27;;;;;;;;;;5080407;28;20402;-61
2023/07/19 04:06:47;;;;;;;17.20;12.80;;;;;;;;;;5081964;28;20031;-61
2023/07/19 04:09:12;;;;;;;15.97;13.03;;;;;;;;;;5089098;28;20152;-61
2023/07/19 04:11:38;;;;;;;17.23;13.35;;;;;;;;;;5077920;28;20012;-59
2023/07/19 04:14:03;;;;;;;15.73;13.37;;;;;;;;;;5088684;28;20039;-61
2023/07/19 04:16:28;;;;;;;17.20;13.50;;;;;;;;;;5092332;28;20332;-63
2023/07/19 04:18:53;;;;;;;18.67;13.30;;;;;;;;;;5091499;28;20764;-61
2023/07/19 04:21:19;;;;;;;17.00;12.47;;;;;;;;;;5085812;28;20111;-61
2023/07/19 04:23:46;;;;;;;16.48;12.98;;;;;;;;;;5081826;28;20282;-64
2023/07/19 04:26:12;;;;;;;14.73;12.35;;;;;;;;;;5086056;28;20023;-61
2023/07/19 04:28:44;;;;;;;17.20;13.57;;;;;;;;;;5086161;28;20041;-61
2023/07/19 04:31:09;;;;;;;18.58;12.77;;;;;;;;;;5090842;28;20096;-62
2023/07/19 04:33:34;;;;;;;17.43;12.53;;;;;;;;;;5081952;28;20020;-60
2023/07/19 04:36:02;;;;;;;15.53;12.47;;;;;;;;;;5092463;28;20106;-60
2023/07/19 04:38:27;;;;;;;15.15;12.55;;;;;;;;;;5084567;28;20023;-59
2023/07/19 04:40:53;;;;;;;14.53;11.80;;;;;;;;;;5088579;28;20016;-61
2023/07/19 04:43:20;;;;;;;18.43;12.57;;;;;;;;;;5084753;28;20078;-60
2023/07/19 04:45:49;;;;;;;21.33;14.05;;;;;;;;;;5081744;28;20039;-61
2023/07/19 04:48:14;;;;;;;18.95;12.18;;;;;;;;;;5084609;28;20050;-60
2023/07/19 04:50:42;;;;;;;14.93;11.47;;;;;;;;;;5078467;28;20056;-62
2023/07/19 04:53:07;;;;;;;15.18;12.48;;;;;;;;;;5085387;28;20040;-60
2023/07/19 04:55:33;;;;;;;17.97;12.10;;;;;;;;;;5088448;28;20053;-64
2023/07/19 04:57:58;;;;;;;15.65;12.13;;;;;;;;;;5086360;28;20275;-62
2023/07/19 05:00:25;;;;;;;18.25;12.55;;;;;;;;;;5078054;28;20136;-61
2023/07/19 05:02:50;;;;;;;17.52;12.55;;;;;;;;;;5084457;28;20024;-60
2023/07/19 05:05:15;;;;;;;16.27;12.10;;;;;;;;;;5082366;28;20023;-61
2023/07/19 05:07:43;;;;;;;14.33;11.33;;;;;;;;;;5078317;28;20669;-60
2023/07/19 05:10:10;;;;;;;17.13;12.35;;;;;;;;;;5081318;28;20113;-62
2023/07/19 05:12:38;;;;;;;15.40;11.68;;;;;;;;;;5078282;28;20073;-60
2023/07/19 05:15:06;;;;;;;14.45;11.75;;;;;;;;;;5081445;28;20085;-60
2023/07/19 05:17:33;;;;;;;15.50;10.85;;;;;;;;;;5080976;28;20048;-59
2023/07/19 05:20:01;;;;;;;15.27;11.23;;;;;;;;;;5086128;28;20715;-64
2023/07/19 05:22:28;;;;;;;16.92;11.70;;;;;;;;;;5079131;28;20020;-61
2023/07/19 05:24:54;;;;;;;14.93;11.30;;;;;;;;;;5081965;28;20028;-61
2023/07/19 05:27:19;;;;;;;15.73;11.43;;;;;;;;;;5079435;28;20031;-61
2023/07/19 05:29:44;;;;;;;14.63;10.98;;;;;;;;;;5088589;28;20257;-59
2023/07/19 05:32:09;;;;;;;16.27;11.03;;;;;;;;;;5084164;28;20028;-61
2023/07/19 05:34:35;;;;;;;14.15;10.25;;;;;;;;;;5083853;28;20253;-59
2023/07/19 05:37:01;;;;;;;14.32;10.48;;;;;;;;;;5078019;28;20024;-61
2023/07/19 05:39:26;;;;;;;15.10;11.35;;;;;;;;;;5085297;28;20022;-63
2023/07/19 05:41:51;;;;;;;16.07;11.37;;;;;;;;;;5080219;28;20024;-61
2023/07/19 05:44:17;;;;;;;15.67;11.23;;;;;;;;;;5083556;28;20035;-61
2023/07/19 05:46:44;;;;;;;14.48;10.57;;;;;;;;;;5083976;28;20023;-63
2023/07/19 05:49:10;;;;;;;14.35;11.32;;;;;;;;;;5089284;28;20016;-61
2023/07/19 05:51:38;;;;;;;16.05;10.57;;;;;;;;;;5085352;28;20370;-60
2023/07/19 05:54:04;;;;;;;15.80;11.27;;;;;;;;;;5088375;28;20020;-63
2023/07/19 05:56:30;;;;;;;14.55;11.05;;;;;;;;;;5088605;28;20475;-60
2023/07/19 05:58:55;;;;;;;14.90;10.30;;;;;;;;;;5085285;28;20027;-61
2023/07/19 06:01:20;;;;;;;17.57;11.20;;;;;;;;;;5089846;28;20708;-60
2023/07/19 06:03:46;;;;;;;12.63;9.67;;;;;;;;;;5087514;28;20008;-60
2023/07/19 06:06:12;;;;;;;14.73;9.60;;;;;;;;;;5082710;28;20020;-61
2023/07/19 06:08:37;;;;;;;13.48;9.57;;;;;;;;;;5079893;28;20024;-61
2023/07/19 06:11:02;;;;;;;15.55;9.82;;;;;;;;;;5082134;28;20020;-63
2023/07/19 06:13:28;;;;;;;16.27;10.25;;;;;;;;;;5087253;28;20643;-62
2023/07/19 06:15:53;;;;;;;16.17;10.33;;;;;;;;;;5090707;28;20777;-63
2023/07/19 06:18:19;;;;;;;16.33;11.00;;;;;;;;;;5090167;28;20298;-65
2023/07/19 06:20:44;;;;;;;14.70;9.93;;;;;;;;;;5083665;28;20027;-62
2023/07/19 06:23:09;;;;;;;13.00;10.20;;;;;;;;;;5089116;28;20520;-63
2023/07/19 06:25:37;;;;;;;15.47;10.40;;;;;;;;;;5079401;28;20258;-59
2023/07/19 06:28:04;;;;;;;18.33;9.98;;;;;;;;;;5096846;28;20085;-61
2023/07/19 06:30:30;;;;;;;15.15;9.75;;;;;;;;;;5080886;28;20080;-60
2023/07/19 06:32:56;;;;;;;12.60;9.50;;;;;;;;;;5086859;28;20032;-63
2023/07/19 06:35:26;;;;;;;14.47;9.93;;;;;;;;;;5084069;28;20024;-62
2023/07/19 06:37:51;;;;;;;15.05;10.43;;;;;;;;;;5082702;28;20016;-61
2023/07/19 06:40:18;;;;;;;13.87;10.10;;;;;;;;;;5090004;28;20035;-59
2023/07/19 06:42:44;;;;;;;17.60;10.35;;;;;;;;;;5080155;28;20115;-62
2023/07/19 06:45:09;;;;;;;18.60;10.93;;;;;;;;;;5082382;28;20034;-60
2023/07/19 06:47:35;;;;;;;17.08;10.52;;;;;;;;;;5081991;28;20752;-61
2023/07/19 06:50:00;;;;;;;16.50;10.52;;;;;;;;;;5090861;28;20626;-60
2023/07/19 06:52:25;;;;;;;17.67;10.77;;;;;;;;;;5082019;28;20024;-60
2023/07/19 06:54:50;;;;;;;17.27;11.07;;;;;;;;;;5081511;28;20469;-60
2023/07/19 06:57:16;;;;;;;18.55;10.57;;;;;;;;;;5088332;28;20242;-60
2023/07/19 06:59:41;;;;;;;13.60;10.25;;;;;;;;;;5092355;28;20047;-60
2023/07/19 07:02:06;;;;;;;17.33;11.03;;;;;;;;;;5077474;28;20031;-59
2023/07/19 07:04:32;;;;;;;15.53;10.60;;;;;;;;;;5087290;28;20980;-59
2023/07/19 07:06:57;;;;;;;20.23;11.50;;;;;;;;;;5081109;28;20306;-61
2023/07/19 07:09:25;;;;;;;14.63;10.23;;;;;;;;;;5085377;28;20533;-62
2023/07/19 07:11:51;;;;;;;15.23;10.23;;;;;;;;;;5080296;28;20332;-61
2023/07/19 07:14:16;;;;;;;16.40;10.68;;;;;;;;;;5090378;28;20029;-61
2023/07/19 07:16:43;;;;;;;14.83;10.67;;;;;;;;;;5081847;28;20016;-61
2023/07/19 07:19:10;;;;;;;15.98;10.90;;;;;;;;;;5093402;28;20554;-62
2023/07/19 07:21:36;;;;;;;15.10;11.30;;;;;;;;;;5087177;28;20015;-63
2023/07/19 07:24:01;;;;;;;18.63;10.65;;;;;;;;;;5085543;28;20019;-61
2023/07/19 07:26:29;;;;;;;16.27;11.40;;;;;;;;;;5083621;28;20012;-60
2023/07/19 07:28:57;;;;;;;18.08;11.02;;;;;;;;;;5081057;28;20023;-61
2023/07/19 07:31:24;;;;;;;14.57;11.95;;;;;;;;;;5086755;28;20020;-63
2023/07/19 07:33:49;;;;;;;17.40;13.00;;;;;;;;;;5083141;28;20036;-61
2023/07/19 07:36:17;;;;;;;15.67;12.50;;;;;;;;;;5091562;28;20070;-62
2023/07/19 07:38:44;;;;;;;17.48;11.25;;;;;;;;;;5084726;28;20024;-62
2023/07/19 07:41:12;;;;;;;14.23;11.90;;;;;;;;;;5086333;28;20382;-64
2023/07/19 07:43:38;;;;;;;15.93;12.48;;;;;;;;;;5080362;28;20039;-60
2023/07/19 07:46:05;;;;;;;17.35;13.32;;;;;;;;;;5078391;28;20121;-63
2023/07/19 07:48:32;;;;;;;16.50;13.10;;;;;;;;;;5091222;28;20031;-60
2023/07/19 07:50:57;;;;;;;20.33;14.68;;;;;;;;;;5061234;28;20082;-59
2023/07/19 07:53:25;;;;;;;17.73;13.97;;;;;;;;;;5093095;28;20804;-59
2023/07/19 07:55:50;;;;;;;20.20;14.30;;;;;;;;;;5078931;28;20819;-60
2023/07/19 07:58:16;;;;;;;22.23;14.83;;;;;;;;;;5086699;28;20026;-59
2023/07/19 08:00:44;;;;;;;18.88;12.65;;;;;;;;;;5083494;28;20531;-61
2023/07/19 08:03:09;;;;;;;19.40;13.23;;;;;;;;;;5080368;27;20696;-64
2023/07/19 08:05:35;;;;;;;17.33;11.68;;;;;;;;;;5075729;28;20114;-61
2023/07/19 08:08:01;;;;;;;14.05;11.48;;;;;;;;;;5079348;28;20016;-64
2023/07/19 08:10:29;;;;;;;17.98;12.20;;;;;;;;;;5083678;28;20582;-61
2023/07/19 08:12:54;;;;;;;15.65;10.40;;;;;;;;;;5081956;28;20034;-59
2023/07/19 08:15:19;;;;;;;18.77;10.80;;;;;;;;;;5084443;28;20027;-63
2023/07/19 08:17:47;;;;;;;13.03;9.70;;;;;;;;;;5085290;28;20059;-61
2023/07/19 08:20:15;;;;;;;12.73;9.45;;;;;;;;;;5088450;28;21065;-61
2023/07/19 08:22:40;;;;;;;16.10;10.30;;;;;;;;;;5078806;28;20028;-63
2023/07/19 08:25:06;;;;;;;15.97;9.67;;;;;;;;;;5091283;28;20068;-61
2023/07/19 08:27:33;;;;;;;14.68;9.70;;;;;;;;;;5079614;28;20712;-60
2023/07/19 08:30:05;;;;;;;14.15;8.93;;;;;;;;;;5087614;28;20023;-62
2023/07/19 08:32:32;;;;;;;16.77;9.35;;;;;;;;;;5084362;28;21570;-62
2023/07/19 08:34:57;;;;;;;17.52;9.40;;;;;;;;;;5087078;27;20428;-60
2023/07/19 08:37:22;;;;;;;13.67;9.63;;;;;;;;;;5085300;28;20100;-62
2023/07/19 08:39:48;;;;;;;14.73;9.10;;;;;;;;;;5080518;28;20605;-61
2023/07/19 08:42:13;;;;;;;13.57;9.10;;;;;;;;;;5080738;28;20315;-61
2023/07/19 08:44:38;;;;;;;15.10;9.15;;;;;;;;;;5079546;28;20793;-63
2023/07/19 08:47:04;;;;;;;12.55;8.25;;;;;;;;;;5091537;28;20043;-64
2023/07/19 08:49:34;;;;;;;11.80;7.28;;;;;;;;;;5077657;28;20653;-61
2023/07/19 08:52:04;;;;;;;13.35;7.80;;;;;;;;;;5083897;28;20085;-61
2023/07/19 08:54:32;;;;;;;11.40;7.53;;;;;;;;;;5087760;28;20950;-60
2023/07/19 08:56:57;;;;;;;14.83;7.33;;;;;;;;;;5086407;28;20024;-64
2023/07/19 08:59:23;;;;;;;13.80;8.50;;;;;;;;;;5069481;28;20272;-61
2023/07/19 09:01:48;;;;;;;20.20;7.85;;;;;;;;;;5084651;28;20024;-61
2023/07/19 09:04:13;;;;;;;15.23;7.80;;;;;;;;;;5091278;28;20024;-60
2023/07/19 09:06:39;;;;;;;17.87;7.87;;;;;;;;;;5080131;28;20351;-64
2023/07/19 09:09:04;;;;;;;15.07;8.15;;;;;;;;;;5087622;28;20065;-63
2023/07/19 09:11:31;;;;;;;12.80;8.07;;;;;;;;;;5083435;28;20019;-62
2023/07/19 09:13:59;;;;;;;13.25;8.15;;;;;;;;;;5082793;28;20394;-60
2023/07/19 09:16:35;;;;;;;12.63;8.18;;;;;;;;;;5085423;28;20016;-61
2023/07/19 09:19:01;;;;;;;13.02;7.65;;;;;;;;;;5080181;28;20050;-60
2023/07/19 09:21:29;;;;;;;13.77;8.55;;;;;;;;;;5085772;28;20012;-60
2023/07/19 09:23:54;;;;;;;14.15;7.60;;;;;;;;;;5086861;28;20084;-61
2023/07/19 09:26:22;;;;;;;17.60;7.60;;;;;;;;;;5088815;28;20024;-61
2023/07/19 09:28:47;;;;;;;15.82;7.78;;;;;;;;;;5085377;28;20022;-61
2023/07/19 09:31:15;;;;;;;12.30;7.97;;;;;;;;;;5087134;28;20024;-61
2023/07/19 09:33:41;;;;;;;13.25;8.15;;;;;;;;;;5095262;28;20292;-62
2023/07/19 09:36:07;;;;;;;13.70;7.67;;;;;;;;;;5088474;28;20020;-61
2023/07/19 09:38:32;;;;;;;15.40;7.60;;;;;;;;;;5094166;28;20254;-62
2023/07/19 09:40:57;;;;;;;15.20;7.57;;;;;;;;;;5084682;28;20015;-62
2023/07/19 09:43:29;;;;;;;13.70;7.80;;;;;;;;;;5089129;28;20019;-62
2023/07/19 09:45:54;;;;;;;11.45;7.25;;;;;;;;;;5087809;28;20585;-61
2023/07/19 09:48:23;;;;;;;11.10;7.28;;;;;;;;;;5088950;28;20031;-61
2023/07/19 09:50:49;;;;;;;10.87;6.80;;;;;;;;;;5086795;28;20131;-64
2023/07/19 09:53:15;;;;;;;10.52;7.00;;;;;;;;;;5090333;28;20027;-63
2023/07/19 09:55:40;;;;;;;12.48;7.35;;;;;;;;;;5090608;28;20030;-59
2023/07/19 09:58:07;;;;;;;12.43;7.40;;;;;;;;;;5086944;28;20050;-63
2023/07/19 10:00:35;;;;;;;11.48;7.75;;;;;;;;;;5088493;28;20024;-62
2023/07/19 10:03:02;;;;;;;11.97;7.50;;;;;;;;;;5081712;28;20027;-62
2023/07/19 10:05:30;;;;;;;14.88;8.65;;;;;;;;;;5088331;28;20273;-63
2023/07/19 10:08:06;;;;;;;13.40;8.27;;;;;;;;;;5085076;28;20112;-63
2023/07/19 10:10:56;;;;;;;11.57;8.48;;;;;;;;;;5089807;28;20635;-61
2023/07/19 10:13:29;;;;;;;13.98;8.57;;;;;;;;;;5091489;28;20036;-61
2023/07/19 10:15:55;;;;;;;13.05;8.30;;;;;;;;;;5083376;28;20050;-63
2023/07/19 10:18:20;;;;;;;12.40;8.17;;;;;;;;;;5097333;28;20614;-63
2023/07/19 10:20:58;;;;;;;12.50;8.70;;;;;;;;;;5085113;28;20361;-62
2023/07/19 10:23:26;;;;;;;15.57;8.88;;;;;;;;;;5088258;28;20096;-61
2023/07/19 10:25:51;;;;;;;15.10;9.32;;;;;;;;;;5082935;28;20008;-61
2023/07/19 10:28:31;;;;;;;15.00;8.50;;;;;;;;;;5089739;28;20085;-63
2023/07/19 10:31:01;;;;;;;12.77;8.13;;;;;;;;;;5091819;28;20290;-63
2023/07/19 10:33:26;;;;;;;15.93;8.93;;;;;;;;;;5088872;28;20027;-61
2023/07/19 10:35:55;;;;;;;22.00;10.23;;;;;;;;;;5087493;27;20039;-63
2023/07/19 10:38:20;;;;;;;16.33;9.90;;;;;;;;;;5083924;28;20250;-62
2023/07/19 10:40:49;;;;;;;15.35;10.10;;;;;;;;;;5084245;28;20072;-62
2023/07/19 10:43:14;;;;;;;14.15;9.57;;;;;;;;;;5084765;28;20028;-61
2023/07/19 10:45:40;;;;;;;13.68;9.65;;;;;;;;;;5085679;28;20019;-62
2023/07/19 10:48:09;;;;;;;12.27;9.77;;;;;;;;;;5088669;28;20039;-60
2023/07/19 10:50:35;;;;;;;17.67;10.75;;;;;;;;;;5079146;28;20551;-61
2023/07/19 10:53:00;;;;;;;16.27;10.40;;;;;;;;;;5091287;28;20021;-61
2023/07/19 10:55:27;;;;;;;15.17;10.07;;;;;;;;;;5082325;28;20171;-62
2023/07/19 10:57:55;;;;;;;17.25;10.85;;;;;;;;;;5093078;28;20102;-63
2023/07/19 11:00:22;;;;;;;15.98;10.45;;;;;;;;;;5081760;28;20024;-61
2023/07/19 11:02:50;;;;;;;16.73;10.90;;;;;;;;;;5088140;28;20034;-61
2023/07/19 11:05:16;;;;;;;15.75;10.48;;;;;;;;;;5090800;28;20103;-61
2023/07/19 11:07:41;;;;;;;14.30;10.30;;;;;;;;;;5084651;28;20127;-62
2023/07/19 11:10:07;;;;;;;14.13;9.40;;;;;;;;;;5090649;28;20024;-61
2023/07/19 11:12:34;;;;;;;14.05;10.43;;;;;;;;;;5084531;28;20616;-62
2023/07/19 11:15:01;;;;;;;14.23;9.80;;;;;;;;;;5091876;28;20083;-66
2023/07/19 11:17:27;;;;;;;14.98;10.15;;;;;;;;;;5086968;28;20532;-62
2023/07/19 11:19:55;;;;;;;16.75;10.38;;;;;;;;;;5086924;28;20047;-64
2023/07/19 11:22:24;;;;;;;24.25;10.80;;;;;;;;;;5089500;28;20081;-60
2023/07/19 11:24:53;;;;;;;14.32;10.02;;;;;;;;;;5097839;27;20015;-64
2023/07/19 11:27:19;;;;;;;13.52;9.25;;;;;;;;;;5083669;28;20027;-62
2023/07/19 11:29:48;;;;;;;22.48;10.38;;;;;;;;;;5084139;28;20016;-61
2023/07/19 11:32:16;;;;;;;13.52;8.55;;;;;;;;;;5082091;28;20933;-63
2023/07/19 11:35:00;;;;;;;15.18;8.57;;;;;;;;;;5086249;28;20061;-63
2023/07/19 11:37:26;;;;;;;16.90;8.75;;;;;;;;;;5085476;28;20055;-62
2023/07/19 11:39:57;;;;;;;14.83;9.03;;;;;;;;;;5087482;28;20135;-62
2023/07/19 11:42:41;;;;;;;13.40;8.85;;;;;;;;;;5087197;28;20018;-62
2023/07/19 11:45:11;;;;;;;15.85;9.10;;;;;;;;;;5078472;28;20622;-63
2023/07/19 11:47:37;;;;;;;14.65;8.40;;;;;;;;;;5081737;28;20027;-61
2023/07/19 11:50:03;;;;;;;12.50;8.38;;;;;;;;;;5087059;28;20682;-61
2023/07/19 11:52:28;;;;;;;15.98;8.77;;;;;;;;;;5086761;28;20023;-64
2023/07/19 11:54:56;;;;;;;14.90;9.35;;;;;;;;;;5088448;28;21192;-64
2023/07/19 11:57:21;;;;;;;12.90;9.75;;;;;;;;;;5088540;28;20014;-62
2023/07/19 11:59:48;;;;;;;14.18;9.43;;;;;;;;;;5082927;28;20620;-63
2023/07/19 12:02:14;;;;;;;13.98;10.10;;;;;;;;;;5083718;28;20024;-63
2023/07/19 12:04:39;;;;;;;16.63;10.32;;;;;;;;;;5083321;28;20894;-63
2023/07/19 12:07:05;;;;;;;13.17;9.47;;;;;;;;;;5086003;28;20458;-62
2023/07/19 12:09:30;;;;;;;13.73;8.65;;;;;;;;;;5082955;28;20387;-61
2023/07/19 12:11:57;;;;;;;15.07;9.10;;;;;;;;;;5083688;28;20605;-62
2023/07/19 12:14:23;;;;;;;15.82;9.25;;;;;;;;;;5076584;28;20034;-61
2023/07/19 12:16:48;;;;;;;15.27;10.57;;;;;;;;;;5082864;28;20437;-64
2023/07/19 12:19:15;;;;;;;16.33;10.13;;;;;;;;;;5078466;28;20048;-63
2023/07/19 12:21:43;;;;;;;14.60;10.05;;;;;;;;;;5084524;28;20249;-62
2023/07/19 12:24:08;;;;;;;15.40;10.45;;;;;;;;;;5081146;28;20039;-64
2023/07/19 12:26:36;;;;;;;19.13;10.50;;;;;;;;;;5078012;28;20028;-63
2023/07/19 12:29:04;;;;;;;13.32;10.35;;;;;;;;;;5082573;28;20024;-62
2023/07/19 12:31:32;;;;;;;14.32;10.68;;;;;;;;;;5084592;28;20023;-62
2023/07/19 12:33:58;;;;;;;19.10;11.93;;;;;;;;;;5082830;28;20035;-64
2023/07/19 12:36:23;;;;;;;15.27;10.47;;;;;;;;;;5073808;28;20265;-65
2023/07/19 12:38:48;;;;;;;17.93;10.30;;;;;;;;;;5083912;28;20065;-63
2023/07/19 12:41:16;;;;;;;15.77;10.30;;;;;;;;;;5089646;28;20256;-62
2023/07/19 12:43:42;;;;;;;14.70;10.20;;;;;;;;;;5079953;28;20500;-62
2023/07/19 12:46:07;;;;;;;15.85;10.10;;;;;;;;;;5088936;28;20106;-61
2023/07/19 12:48:32;;;;;;;13.95;9.98;;;;;;;;;;5089648;28;20106;-62
2023/07/19 12:50:57;;;;;;;12.70;9.13;;;;;;;;;;5092558;28;20913;-61
2023/07/19 12:53:27;;;;;;;13.77;10.10;;;;;;;;;;5083124;28;20015;-62
2023/07/19 12:55:53;;;;;;;16.38;10.57;;;;;;;;;;5081400;28;20020;-60
2023/07/19 12:58:21;;;;;;;13.38;9.48;;;;;;;;;;5080082;28;20302;-65
2023/07/19 13:00:46;;;;;;;17.48;9.98;;;;;;;;;;5083315;28;20055;-62
2023/07/19 13:03:12;;;;;;;14.53;9.23;;;;;;;;;;5086407;28;20673;-61
2023/07/19 13:05:37;;;;;;;13.97;9.43;;;;;;;;;;5086719;28;20306;-62
2023/07/19 13:08:05;;;;;;;13.50;8.57;;;;;;;;;;5083225;28;20069;-61
2023/07/19 13:10:32;;;;;;;16.23;8.98;;;;;;;;;;5079993;28;20031;-61
2023/07/19 13:12:57;;;;;;;16.73;9.07;;;;;;;;;;5088792;28;20027;-60
2023/07/19 13:15:23;;;;;;;13.57;9.48;;;;;;;;;;5082154;28;20042;-60
2023/07/19 13:17:48;;;;;;;13.50;9.33;;;;;;;;;;5085064;28;20640;-60
2023/07/19 13:20:14;;;;;;;12.35;9.13;;;;;;;;;;5066838;28;20446;-60
2023/07/19 13:22:42;;;;;;;15.82;9.15;;;;;;;;;;5084851;28;20478;-62
2023/07/19 13:25:09;;;;;;;15.57;9.00;;;;;;;;;;5083789;28;20030;-61
2023/07/19 13:27:35;;;;;;;12.68;8.75;;;;;;;;;;5075921;28;20016;-62
2023/07/19 13:30:03;;;;;;;12.52;8.70;;;;;;;;;;5077957;28;20785;-63
2023/07/19 13:32:29;;;;;;;18.83;10.38;;;;;;;;;;5082284;28;20023;-62
2023/07/19 13:34:54;;;;;;;13.82;9.43;;;;;;;;;;5082942;28;20032;-59
2023/07/19 13:37:20;;;;;;;16.65;10.15;;;;;;;;;;5081383;28;20032;-63
2023/07/19 13:39:45;;;;;;;14.73;10.00;;;;;;;;;;5078558;28;20027;-60
2023/07/19 13:42:12;;;;;;;16.73;10.53;;;;;;;;;;5083150;28;21124;-60
2023/07/19 13:44:40;;;;;;;16.77;10.00;;;;;;;;;;5088605;28;20019;-63
2023/07/19 13:47:05;;;;;;;12.63;9.23;;;;;;;;;;5076455;28;20020;-61
2023/07/19 13:49:33;;;;;;;15.10;9.40;;;;;;;;;;5085406;28;20104;-60
2023/07/19 13:51:58;;;;;;;21.63;9.75;;;;;;;;;;5081116;28;20262;-63
2023/07/19 13:54:24;;;;;;;14.33;8.93;;;;;;;;;;5086868;28;20030;-61
2023/07/19 13:56:49;;;;;;;15.67;9.90;;;;;;;;;;5073229;28;20262;-62
2023/07/19 13:59:15;;;;;;;14.48;9.38;;;;;;;;;;5078193;28;20122;-60
2023/07/19 14:01:40;;;;;;;13.95;9.30;;;;;;;;;;5082224;28;20020;-61
2023/07/19 14:04:05;;;;;;;16.73;10.25;;;;;;;;;;5090675;28;20023;-60
2023/07/19 14:06:33;;;;;;;16.57;9.57;;;;;;;;;;5081760;28;20123;-63
2023/07/19 14:09:01;;;;;;;12.35;9.48;;;;;;;;;;5084083;28;20159;-63
2023/07/19 14:11:29;;;;;;;18.83;10.65;;;;;;;;;;5093364;28;20486;-62
2023/07/19 14:13:54;;;;;;;13.13;9.93;;;;;;;;;;5081725;28;20106;-60
2023/07/19 14:16:21;;;;;;;11.60;9.37;;;;;;;;;;5084876;28;20937;-62